Big Rapids, MI

3:07 PM EDT on June 28, 2017 (GMT -0400)
Roben-Hood

Weather History for KRQB - November, 2011

Change the Weather History Date:

Friday, November 18, 2011

  Actual Average Record
Temperature  
Mean Temperature 34 °F -  
Max Temperature 47 °F 45 °F 69 °F (2016)
Min Temperature 20 °F 28 °F 8 °F (2008)
Degree Days  
Heating Degree Days 32    
Moisture  
Dew Point 21 °F    
Average Humidity 59    
Maximum Humidity 93    
Minimum Humidity 32    
Precipitation  
Precipitation 0.00 in - - ()
Sea Level Pressure  
Sea Level Pressure 30.01 in    
Wind  
Wind Speed 8 mph (SSW)    
Max Wind Speed 30 mph    
Max Gust Speed 40 mph    
Visibility 10 miles    
Events      
Averages and records for this station are not official NWS values.
T = Trace of Precipitation, MM = Missing Value Source: NWS Daily Summary

Daily Weather History Graph

Daily Weather History Graph

Search for Another Location

Airport or City:

Trip Planner

Search our weather history database for the weather conditions in past years. The results will help you decide how hot, cold, wet, or windy it might be!

Date:

Astronomy

Nov. 18, 2011 Rise Set
Actual Time 7:39 AM EST 5:14 PM EST
Civil Twilight 7:08 AM EST 5:45 PM EST
Nautical Twilight 6:33 AM EST 6:20 PM EST
Astronomical Twilight 5:59 AM EST 6:54 PM EST
Moon No Moon Rise 1:13 PM EST (11/18)
Length of Visible Light 10h 36m
Length of Day
9h 34m
Waning Gibbous, 49% of the Moon is Illuminated
Nov 18
Waning Gibbous
Nov 25
New
Dec 2
First Quarter
Dec 10
Full
Dec 17
Last Quarter

Hourly Weather History & Observations

Time (EST) Temp. Windchill Dew Point Humidity Pressure Visibility Wind Dir Wind Speed Gust Speed Precip Events Conditions
12:14 AM 28.4 °F 24.6 °F 17.6 °F 64% 30.14 in 10.0 mi WSW 3.5 mph - N/A   Scattered Clouds
12:35 AM 27.7 °F - 17.2 °F 65% 30.15 in 10.0 mi Calm Calm - N/A   Clear
12:55 AM 25.2 °F - 18.0 °F 74% 30.14 in 10.0 mi Calm Calm - N/A   Clear
1:14 AM 24.4 °F - 18.0 °F 76% 30.14 in 10.0 mi Calm Calm - N/A   Clear
1:35 AM 24.4 °F - 17.6 °F 75% 30.15 in 10.0 mi Calm Calm - N/A   Clear
2:14 AM 23.0 °F 18.4 °F 19.0 °F 85% 30.15 in 10.0 mi South 3.5 mph - N/A   Clear
2:35 AM 20.1 °F - 17.1 °F 88% 30.14 in 10.0 mi Calm Calm - N/A   Clear
2:55 AM 20.7 °F - 18.9 °F 93% 30.14 in 10.0 mi Calm Calm - N/A   Scattered Clouds
3:35 AM 22.3 °F - 18.5 °F 85% 30.14 in 10.0 mi Calm Calm - N/A   Clear
3:55 AM 22.5 °F - 18.7 °F 85% 30.14 in 10.0 mi Calm Calm - N/A   Clear
4:14 AM 22.5 °F 17.8 °F 18.9 °F 86% 30.13 in 10.0 mi SSE 3.5 mph - N/A   Clear
4:24 AM 23.0 °F 17.0 °F 19.0 °F 85% 30.13 in 10.0 mi SSE 4.6 mph - N/A   Clear
4:55 AM 23.9 °F 16.8 °F 19.4 °F 83% 30.12 in 10.0 mi South 5.8 mph - N/A   Clear
5:14 AM 23.9 °F 18.0 °F 19.4 °F 83% 30.12 in 10.0 mi South 4.6 mph - N/A   Clear
5:35 AM 24.3 °F 18.4 °F 19.9 °F 84% 30.12 in 10.0 mi South 4.6 mph - N/A   Clear
5:54 AM 24.6 °F 17.7 °F 20.1 °F 83% 30.11 in 10.0 mi South 5.8 mph - N/A   Clear
6:35 AM 25.5 °F 18.7 °F 20.3 °F 81% 30.10 in 10.0 mi South 5.8 mph - N/A   Mostly Cloudy
6:55 AM 26.1 °F 19.4 °F 20.8 °F 81% 30.08 in 10.0 mi SSE 5.8 mph - N/A   Scattered Clouds
7:14 AM 26.6 °F 20.0 °F 21.2 °F 80% 30.09 in 10.0 mi South 5.8 mph - N/A   Clear
7:35 AM 27.0 °F 18.7 °F 21.2 °F 79% 30.08 in 10.0 mi South 8.1 mph - N/A   Scattered Clouds
7:55 AM 27.0 °F 18.7 °F 21.7 °F 81% 30.08 in 10.0 mi South 8.1 mph - N/A   Clear
8:15 AM 27.5 °F 18.6 °F 22.1 °F 80% 30.07 in 10.0 mi South 9.2 mph - N/A   Clear
8:35 AM 28.6 °F 19.9 °F 22.5 °F 78% 30.07 in 10.0 mi South 9.2 mph - N/A   Clear
8:54 AM 29.5 °F 19.9 °F 23.0 °F 77% 30.05 in 10.0 mi South 11.5 mph 16.1 mph N/A   Scattered Clouds
9:15 AM 30.7 °F 24.1 °F 23.4 °F 74% 30.05 in 10.0 mi South 6.9 mph - N/A   Mostly Cloudy
9:54 AM 34.2 °F 25.2 °F 23.5 °F 65% 30.04 in 10.0 mi South 12.7 mph 25.3 mph N/A   Clear
10:15 AM 36.3 °F 28.4 °F 23.0 °F 59% 30.04 in 10.0 mi South 11.5 mph 20.7 mph N/A   Clear
10:35 AM 38.3 °F 29.3 °F 23.9 °F 56% 30.04 in 10.0 mi SSW 16.1 mph 23.0 mph N/A   Clear
10:54 AM 39.7 °F 30.3 °F 25.2 °F 56% 30.03 in 10.0 mi SSW 19.6 mph 26.5 mph N/A   Clear
11:15 AM 41.0 °F 32.2 °F 25.7 °F 55% 30.02 in 10.0 mi SSW 18.4 mph 28.8 mph N/A   Clear
11:35 AM 42.1 °F 34.5 °F 26.4 °F 54% 30.01 in 10.0 mi SSW 15.0 mph 24.2 mph N/A   Clear
11:54 AM 43.3 °F 34.7 °F 27.1 °F 53% 30.00 in 10.0 mi SSW 20.7 mph 27.6 mph N/A   Clear
12:15 PM 44.6 °F 37.4 °F 27.5 °F 51% 29.98 in 10.0 mi SW 16.1 mph 28.8 mph N/A   Clear
12:34 PM 46.6 °F - 26.1 °F 45% 29.96 in 10.0 mi SW 24.2 mph 33.4 mph N/A   Clear
12:54 PM 47.1 °F - 23.9 °F 40% 29.95 in 10.0 mi SW 29.9 mph 40.3 mph N/A   Clear
1:15 PM 47.1 °F - 23.2 °F 39% 29.94 in 10.0 mi SSW 26.5 mph 35.7 mph N/A   Clear
1:34 PM 45.9 °F 37.6 °F 23.5 °F 41% 29.93 in 10.0 mi SSW 23.0 mph 32.2 mph N/A   Clear
1:55 PM 46.4 °F 40.4 °F 22.1 °F 38% 29.91 in 10.0 mi SW 13.8 mph 35.7 mph N/A   Clear
2:15 PM 47.3 °F - 21.2 °F 36% 29.90 in 10.0 mi SSW 19.6 mph 33.4 mph N/A   Clear
2:34 PM 46.8 °F - 20.1 °F 35% 29.89 in 10.0 mi SW 21.9 mph 31.1 mph N/A   Clear
2:55 PM 47.1 °F - 19.6 °F 34% 29.89 in 10.0 mi SW 24.2 mph 35.7 mph N/A   Clear
3:15 PM 46.8 °F - 19.6 °F 34% 29.89 in 10.0 mi SSW 12.7 mph 25.3 mph N/A   Clear
3:55 PM 46.4 °F 39.2 °F 18.1 °F 32% 29.88 in 10.0 mi SSW 18.4 mph 31.1 mph N/A   Scattered Clouds
4:15 PM 46.0 °F 40.2 °F 17.6 °F 32% 29.87 in 10.0 mi SSW 12.7 mph 20.7 mph N/A   Scattered Clouds
4:34 PM 45.5 °F 38.6 °F 17.6 °F 33% 29.87 in 10.0 mi SSW 16.1 mph 24.2 mph N/A   Mostly Cloudy
4:55 PM 45.5 °F 38.6 °F 17.8 °F 33% 29.87 in 10.0 mi SSW 16.1 mph 23.0 mph N/A   Overcast
5:15 PM 45.1 °F 39.5 °F 18.0 °F 34% 29.86 in 10.0 mi SSW 11.5 mph 23.0 mph N/A   Overcast
6:15 PM 44.1 °F 36.2 °F 19.0 °F 37% 29.86 in 10.0 mi SSW 18.4 mph 23.0 mph N/A   Mostly Cloudy
6:34 PM 44.1 °F 37.7 °F 18.9 °F 37% 29.87 in 10.0 mi SSW 12.7 mph 23.0 mph N/A   Mostly Cloudy
6:55 PM 43.7 °F 36.6 °F 18.5 °F 36% 29.87 in 10.0 mi SSW 15.0 mph 24.2 mph N/A   Scattered Clouds
7:15 PM 43.7 °F 37.7 °F 18.7 °F 37% 29.89 in 10.0 mi SSW 11.5 mph 19.6 mph N/A   Clear
7:35 PM 43.0 °F 35.7 °F 18.9 °F 38% 29.89 in 10.0 mi SSW 15.0 mph 21.9 mph N/A   Clear
7:55 PM 42.4 °F 37.0 °F 19.0 °F 39% 29.89 in 10.0 mi SSW 9.2 mph 16.1 mph N/A   Clear
8:15 PM 42.1 °F 35.7 °F 19.0 °F 40% 29.89 in 10.0 mi SSW 11.5 mph 18.4 mph N/A   Clear
8:35 PM 41.9 °F 35.0 °F 19.4 °F 41% 29.90 in 10.0 mi SSW 12.7 mph 17.3 mph N/A   Clear
8:55 PM 41.9 °F 36.3 °F 19.4 °F 41% 29.90 in 10.0 mi SSW 9.2 mph 17.3 mph N/A   Clear
9:14 PM 41.0 °F 34.7 °F 19.6 °F 42% 29.90 in 10.0 mi South 10.4 mph - N/A   Clear
9:55 PM 40.8 °F 35.0 °F 21.0 °F 45% 29.89 in 10.0 mi South 9.2 mph - N/A   Clear
10:14 PM 40.1 °F 35.3 °F 21.6 °F 48% 29.89 in 10.0 mi South 6.9 mph - N/A   Clear
10:35 PM 39.7 °F 33.2 °F 22.1 °F 49% 29.89 in 10.0 mi SSW 10.4 mph - N/A   Clear
10:55 PM 40.1 °F 34.1 °F 23.0 °F 51% 29.89 in 10.0 mi SSW 9.2 mph - N/A   Clear
11:14 PM 39.9 °F 35.8 °F 23.4 °F 52% 29.89 in 10.0 mi South 5.8 mph 16.1 mph N/A   Clear
11:35 PM 39.2 °F 34.2 °F 23.5 °F 53% 29.89 in 10.0 mi South 6.9 mph - N/A   Clear
11:55 PM 39.0 °F 34.0 °F 23.4 °F 53% 29.89 in 10.0 mi South 6.9 mph - N/A   Clear